createdAt,value
2017-08-31T00:01:03.154Z,89.00
2017-08-31T00:03:33.896Z,88.50
2017-08-31T00:06:05.288Z,89.10
2017-08-31T00:08:37.267Z,88.10
2017-08-31T00:13:51.839Z,88.60
2017-08-31T00:16:21.466Z,89.20
2017-08-31T00:18:51.036Z,88.70
2017-08-31T00:21:22.605Z,89.30
2017-08-31T00:23:53.279Z,89.00
2017-08-31T00:26:24.509Z,88.70
2017-08-31T00:28:58.302Z,88.70
2017-08-31T00:31:29.600Z,87.50
2017-08-31T00:33:59.899Z,87.60
2017-08-31T00:36:31.360Z,88.10
2017-08-31T00:39:01.988Z,88.20
2017-08-31T00:41:34.806Z,88.20
2017-08-31T00:44:09.051Z,88.20
2017-08-31T00:46:40.269Z,87.40
2017-08-31T00:49:10.859Z,87.10
2017-08-31T00:51:42.143Z,87.80
2017-08-31T00:54:19.187Z,88.00
2017-08-31T00:56:54.563Z,87.80
2017-08-31T00:59:31.679Z,87.90
2017-08-31T01:02:03.647Z,88.30
2017-08-31T01:04:34.218Z,88.30
2017-08-31T01:07:14.613Z,88.80
2017-08-31T01:09:50.022Z,89.60
2017-08-31T01:12:19.429Z,90.30
2017-08-31T01:14:52.215Z,90.60
2017-08-31T01:20:07.371Z,91.20
2017-08-31T01:22:36.811Z,91.50
2017-08-31T01:25:07.423Z,91.70
2017-08-31T01:27:37.491Z,92.40
2017-08-31T01:30:08.631Z,91.90
2017-08-31T01:32:43.546Z,92.00
2017-08-31T01:35:13.903Z,92.30
2017-08-31T01:37:49.612Z,92.20
2017-08-31T01:40:20.738Z,92.20
2017-08-31T01:42:51.846Z,92.20
2017-08-31T01:45:21.334Z,92.20
2017-08-31T01:47:51.747Z,92.40
2017-08-31T01:50:22.290Z,92.40
2017-08-31T01:52:51.738Z,92.20
2017-08-31T01:55:25.052Z,91.80
2017-08-31T01:57:55.547Z,91.60
2017-08-31T02:00:27.436Z,91.80
2017-08-31T02:02:57.880Z,92.00
2017-08-31T02:05:28.534Z,91.90
2017-08-31T02:07:58.120Z,92.20
2017-08-31T02:10:29.694Z,91.90
2017-08-31T02:12:59.771Z,92.00
2017-08-31T02:15:38.527Z,91.90
2017-08-31T02:18:14.147Z,92.20
2017-08-31T02:20:44.473Z,92.30
2017-08-31T02:23:15.088Z,92.40
2017-08-31T02:25:48.914Z,92.40
2017-08-31T02:28:18.954Z,92.60
2017-08-31T02:30:49.473Z,92.40
2017-08-31T02:33:19.938Z,92.50
2017-08-31T02:35:50.181Z,92.50
2017-08-31T02:38:19.677Z,92.80
2017-08-31T02:40:49.035Z,92.40
2017-08-31T02:43:18.495Z,92.90
2017-08-31T02:45:47.731Z,93.20
2017-08-31T02:48:16.951Z,92.40
2017-08-31T02:50:46.176Z,92.20
2017-08-31T02:53:15.537Z,92.60
2017-08-31T02:55:45.978Z,92.50
2017-08-31T02:58:15.275Z,92.50
2017-08-31T03:00:47.365Z,92.20
2017-08-31T03:03:21.050Z,92.20
2017-08-31T03:05:51.237Z,92.60
2017-08-31T03:08:22.976Z,92.30
2017-08-31T03:10:55.122Z,92.20
2017-08-31T03:13:25.244Z,92.40
2017-08-31T03:15:54.544Z,92.30
2017-08-31T03:18:23.758Z,91.90
2017-08-31T03:20:53.026Z,92.20
2017-08-31T03:23:22.845Z,92.20
2017-08-31T03:25:52.287Z,92.40
2017-08-31T03:28:21.775Z,92.60
2017-08-31T03:30:51.097Z,92.20
2017-08-31T03:33:20.407Z,92.20
2017-08-31T03:35:50.180Z,92.60
2017-08-31T03:38:19.511Z,92.70
2017-08-31T03:40:48.821Z,92.10
2017-08-31T03:43:18.194Z,92.30
2017-08-31T03:45:48.166Z,92.50
2017-08-31T03:48:19.171Z,92.90
2017-08-31T03:50:49.425Z,92.90
2017-08-31T03:53:19.280Z,92.40
2017-08-31T03:55:48.744Z,92.70
2017-08-31T03:58:18.558Z,92.60
2017-08-31T04:00:47.909Z,92.70
2017-08-31T04:03:17.134Z,92.50
2017-08-31T04:05:46.587Z,92.20
2017-08-31T04:08:15.834Z,92.40
2017-08-31T04:10:46.190Z,93.00
2017-08-31T04:13:15.980Z,92.60
2017-08-31T04:15:45.586Z,92.20
2017-08-31T04:18:15.243Z,92.10
2017-08-31T04:20:45.448Z,92.30
2017-08-31T04:23:15.020Z,92.40
2017-08-31T04:25:44.368Z,92.40
2017-08-31T04:28:14.220Z,92.50
2017-08-31T04:30:44.177Z,92.50
2017-08-31T04:33:14.398Z,92.60
2017-08-31T04:35:44.340Z,93.00
2017-08-31T04:38:15.259Z,92.90
2017-08-31T04:40:44.842Z,92.80
2017-08-31T04:43:14.990Z,92.80
2017-08-31T04:45:44.421Z,93.00
2017-08-31T04:48:15.753Z,92.70
2017-08-31T04:50:45.309Z,92.40
2017-08-31T04:53:15.166Z,92.50
2017-08-31T04:55:44.408Z,92.70
2017-08-31T04:58:13.954Z,92.60
2017-08-31T05:00:44.488Z,92.60
2017-08-31T05:03:14.411Z,92.50
2017-08-31T05:05:44.307Z,92.70
2017-08-31T05:08:14.623Z,91.90
2017-08-31T05:10:44.618Z,91.90
2017-08-31T05:13:14.698Z,91.90
2017-08-31T05:15:44.739Z,92.20
2017-08-31T05:18:15.571Z,91.80
2017-08-31T05:20:45.431Z,92.00
2017-08-31T05:23:16.355Z,91.90
2017-08-31T05:25:46.861Z,91.80
2017-08-31T05:28:20.045Z,92.30
2017-08-31T05:30:50.499Z,92.00
2017-08-31T05:33:30.766Z,92.40
2017-08-31T05:36:01.344Z,92.30
2017-08-31T05:38:31.468Z,92.20
2017-08-31T05:41:01.184Z,92.30
2017-08-31T05:43:32.240Z,92.70
2017-08-31T05:46:01.721Z,92.60
2017-08-31T05:48:31.311Z,92.50
2017-08-31T05:59:35.014Z,92.20
2017-08-31T06:02:04.459Z,91.90
2017-08-31T06:04:35.227Z,92.00
2017-08-31T06:07:16.663Z,92.00
2017-08-31T06:09:46.393Z,92.90
2017-08-31T06:12:16.901Z,92.50
2017-08-31T06:14:47.549Z,92.30
2017-08-31T06:17:17.180Z,92.30
2017-08-31T06:19:46.622Z,92.10
2017-08-31T06:22:16.332Z,92.30
2017-08-31T06:24:45.750Z,92.90
2017-08-31T06:27:29.884Z,92.00
2017-08-31T06:30:22.846Z,91.90
2017-08-31T06:32:59.105Z,92.00
2017-08-31T06:35:45.876Z,92.00
2017-08-31T06:38:28.959Z,91.80
2017-08-31T06:41:29.377Z,91.50
2017-08-31T06:44:12.315Z,91.70
2017-08-31T06:46:42.950Z,92.20
2017-08-31T06:49:15.254Z,92.30
2017-08-31T06:51:45.135Z,92.20
2017-08-31T06:54:14.918Z,91.80
2017-08-31T06:56:45.295Z,91.80
2017-08-31T06:59:15.017Z,91.60
2017-08-31T07:01:58.491Z,92.00
2017-08-31T07:04:33.419Z,91.90
2017-08-31T07:07:03.827Z,91.50
2017-08-31T07:09:33.917Z,91.60
2017-08-31T07:12:09.631Z,92.30
2017-08-31T07:14:43.085Z,91.00
2017-08-31T07:17:12.965Z,91.00
2017-08-31T07:19:45.370Z,91.30
2017-08-31T07:22:15.102Z,91.30
2017-08-31T07:24:58.728Z,91.70
2017-08-31T07:27:30.803Z,90.90
2017-08-31T07:30:02.923Z,90.90
2017-08-31T07:32:50.007Z,91.20
2017-08-31T07:35:45.303Z,90.80
2017-08-31T07:38:17.227Z,91.70
2017-08-31T07:40:48.003Z,91.20
2017-08-31T07:43:22.816Z,91.10
2017-08-31T07:45:58.524Z,91.00
2017-08-31T07:48:31.159Z,91.30
2017-08-31T07:51:03.421Z,91.00
2017-08-31T07:53:36.641Z,90.60
2017-08-31T07:56:09.644Z,90.50
2017-08-31T07:58:40.081Z,90.50
2017-08-31T08:01:10.507Z,90.20
2017-08-31T08:03:41.602Z,90.30
2017-08-31T08:06:11.580Z,90.10
2017-08-31T08:08:44.410Z,90.20
2017-08-31T08:11:27.336Z,90.50
2017-08-31T08:14:01.795Z,90.70
2017-08-31T08:16:32.409Z,89.70
2017-08-31T08:19:02.710Z,90.00
2017-08-31T08:21:33.841Z,89.90
2017-08-31T08:24:04.161Z,90.30
2017-08-31T08:26:33.798Z,89.40
2017-08-31T08:29:12.898Z,89.20
2017-08-31T08:31:46.388Z,88.70
2017-08-31T08:34:18.059Z,88.90
2017-08-31T08:36:51.626Z,87.50
2017-08-31T08:39:21.386Z,88.10
2017-08-31T08:41:52.448Z,87.40
2017-08-31T08:44:24.216Z,88.20
2017-08-31T08:46:57.226Z,87.30
2017-08-31T08:52:27.086Z,87.20
2017-08-31T08:54:58.316Z,86.40
2017-08-31T08:57:28.040Z,86.10
2017-08-31T08:59:57.926Z,86.90
2017-08-31T09:02:27.271Z,86.50
2017-08-31T09:04:56.732Z,86.60
2017-08-31T09:07:26.207Z,86.30
2017-08-31T09:09:58.664Z,85.00
2017-08-31T09:12:28.983Z,83.50
2017-08-31T09:15:00.918Z,85.30
2017-08-31T09:17:30.624Z,85.50
2017-08-31T09:20:00.385Z,87.40
2017-08-31T09:22:30.260Z,88.60
2017-08-31T09:25:18.506Z,89.60
2017-08-31T09:27:48.841Z,90.60
2017-08-31T09:30:25.273Z,91.00
2017-08-31T09:32:55.266Z,90.30
2017-08-31T09:35:34.976Z,90.30
2017-08-31T09:38:07.931Z,90.40
2017-08-31T09:40:39.128Z,90.30
2017-08-31T09:43:10.432Z,90.40
2017-08-31T09:45:40.679Z,90.40
2017-08-31T09:48:11.855Z,90.40
2017-08-31T09:50:46.755Z,90.40
2017-08-31T09:53:22.388Z,90.20
2017-08-31T09:56:19.008Z,90.30
2017-08-31T09:59:00.150Z,90.20
2017-08-31T10:01:32.103Z,90.30
2017-08-31T10:04:03.241Z,90.80
2017-08-31T10:06:33.809Z,90.50
2017-08-31T10:09:04.964Z,90.20
2017-08-31T10:11:43.821Z,89.10
2017-08-31T10:14:14.022Z,89.60
2017-08-31T10:16:44.558Z,89.20
2017-08-31T10:19:15.220Z,89.50
2017-08-31T10:21:49.857Z,88.00
2017-08-31T10:24:21.106Z,88.00
2017-08-31T10:26:50.942Z,88.10
2017-08-31T10:29:22.131Z,88.60
2017-08-31T10:31:52.868Z,87.20
2017-08-31T10:34:23.229Z,88.00
2017-08-31T10:36:53.857Z,89.30
2017-08-31T10:39:24.692Z,90.00
2017-08-31T10:41:57.404Z,90.20
2017-08-31T10:44:27.878Z,90.60
2017-08-31T10:47:02.016Z,89.60
2017-08-31T10:49:32.633Z,90.00
2017-08-31T10:52:02.794Z,90.20
2017-08-31T10:54:34.083Z,91.20
2017-08-31T10:57:04.102Z,91.20
2017-08-31T10:59:34.099Z,89.60
2017-08-31T11:02:04.389Z,89.10
2017-08-31T11:04:34.791Z,88.30
2017-08-31T11:07:04.935Z,87.90
2017-08-31T11:09:35.767Z,87.30
2017-08-31T11:12:06.881Z,86.90
2017-08-31T11:14:36.795Z,86.70
2017-08-31T11:17:07.273Z,86.50
2017-08-31T11:19:44.429Z,85.50
2017-08-31T11:22:18.502Z,83.20
2017-08-31T11:24:51.683Z,82.80
2017-08-31T11:27:23.609Z,81.30
2017-08-31T11:29:54.023Z,81.50
2017-08-31T11:32:26.958Z,82.30
2017-08-31T11:34:57.186Z,83.60
2017-08-31T11:37:27.861Z,87.00
2017-08-31T11:39:58.832Z,86.10
2017-08-31T11:42:40.800Z,85.40
2017-08-31T11:45:10.964Z,85.60
2017-08-31T11:47:42.577Z,88.10
2017-08-31T11:50:52.685Z,86.10
2017-08-31T11:53:22.468Z,86.20
2017-08-31T11:55:54.849Z,83.70
2017-08-31T11:58:25.891Z,83.20
2017-08-31T12:00:57.673Z,79.70
2017-08-31T12:03:29.429Z,79.60
2017-08-31T12:06:00.529Z,79.70
2017-08-31T12:08:32.068Z,78.70
2017-08-31T12:11:02.155Z,78.10
2017-08-31T12:13:35.825Z,77.30
2017-08-31T12:16:06.528Z,79.60
2017-08-31T12:18:37.592Z,77.30
2017-08-31T12:21:08.028Z,79.40
2017-08-31T12:23:38.030Z,77.90
2017-08-31T12:26:16.328Z,78.90
2017-08-31T12:28:47.321Z,78.20
2017-08-31T12:34:13.264Z,73.00
2017-08-31T12:36:43.553Z,73.60
2017-08-31T12:39:14.047Z,72.50
2017-08-31T12:41:44.273Z,71.40
2017-08-31T12:44:17.543Z,71.00
2017-08-31T12:46:47.552Z,68.80
2017-08-31T12:49:19.597Z,64.00
2017-08-31T12:52:05.892Z,64.00
2017-08-31T12:54:36.326Z,65.70
2017-08-31T12:57:08.153Z,67.70
2017-08-31T12:59:37.938Z,67.60
2017-08-31T13:02:07.707Z,66.80
2017-08-31T13:04:39.820Z,62.90
2017-08-31T13:07:17.598Z,63.40
2017-08-31T13:09:48.807Z,64.00
2017-08-31T13:12:19.128Z,63.30
2017-08-31T13:14:55.273Z,63.60
2017-08-31T13:17:26.316Z,64.50
2017-08-31T13:19:55.916Z,63.10
2017-08-31T13:22:25.614Z,63.60
2017-08-31T13:24:55.600Z,64.80
2017-08-31T13:27:26.120Z,63.10
2017-08-31T13:29:56.297Z,60.70
2017-08-31T13:32:26.353Z,59.90
2017-08-31T13:34:57.580Z,61.60
2017-08-31T13:37:34.593Z,61.40
2017-08-31T13:40:04.260Z,61.70
2017-08-31T13:42:34.020Z,59.30
2017-08-31T13:45:03.705Z,58.60
2017-08-31T13:47:34.076Z,59.30
2017-08-31T13:50:04.035Z,59.50
2017-08-31T13:52:35.310Z,61.50
2017-08-31T13:55:05.383Z,61.50
2017-08-31T13:57:36.119Z,62.50
2017-08-31T14:00:05.728Z,63.10
2017-08-31T14:02:36.357Z,63.50
2017-08-31T14:05:06.711Z,63.80
2017-08-31T14:07:38.240Z,62.50
2017-08-31T14:10:08.066Z,63.20
2017-08-31T14:12:51.363Z,63.00
2017-08-31T14:15:22.101Z,63.00
2017-08-31T14:18:05.276Z,63.30
2017-08-31T14:20:45.315Z,63.50
2017-08-31T14:23:15.164Z,64.70
2017-08-31T14:25:48.249Z,63.90
2017-08-31T14:28:18.416Z,64.80
2017-08-31T14:30:48.556Z,65.20
2017-08-31T14:33:57.821Z,64.40
2017-08-31T14:36:39.238Z,63.30
2017-08-31T14:39:11.574Z,62.40
2017-08-31T14:41:42.707Z,61.90
2017-08-31T14:44:13.184Z,63.10
2017-08-31T14:46:43.747Z,62.30
2017-08-31T14:49:16.645Z,61.60
2017-08-31T14:51:48.618Z,61.70
2017-08-31T14:54:20.575Z,61.80
2017-08-31T14:56:54.407Z,60.60
2017-08-31T14:59:27.338Z,58.70
2017-08-31T15:01:58.470Z,58.70
2017-08-31T15:04:28.450Z,57.90
2017-08-31T15:06:58.578Z,55.70
2017-08-31T15:10:02.545Z,55.50
2017-08-31T15:12:39.179Z,55.70
2017-08-31T15:15:09.750Z,56.30
2017-08-31T15:17:40.161Z,56.30
2017-08-31T15:20:09.952Z,56.60
2017-08-31T15:22:39.499Z,56.30
2017-08-31T15:25:09.045Z,56.50
2017-08-31T15:27:39.664Z,56.20
2017-08-31T15:30:09.754Z,56.10
2017-08-31T15:32:39.363Z,56.70
2017-08-31T15:35:09.579Z,56.70
2017-08-31T15:37:39.122Z,55.40
2017-08-31T15:40:10.867Z,57.20
2017-08-31T15:42:42.220Z,56.00
2017-08-31T15:45:17.399Z,56.00
2017-08-31T15:47:58.798Z,56.10
2017-08-31T15:50:32.973Z,56.10
2017-08-31T15:53:25.326Z,56.50
2017-08-31T15:56:05.982Z,56.70
2017-08-31T15:58:39.213Z,56.10
2017-08-31T16:01:18.123Z,56.10
2017-08-31T16:03:55.183Z,55.70
2017-08-31T16:06:27.325Z,55.40
2017-08-31T16:08:58.913Z,55.30
2017-08-31T16:11:36.133Z,56.00
2017-08-31T16:14:06.785Z,55.20
2017-08-31T16:16:38.926Z,55.10
2017-08-31T16:19:12.023Z,55.00
2017-08-31T16:21:44.986Z,54.90
2017-08-31T16:24:14.900Z,55.30
2017-08-31T16:26:45.129Z,55.10
2017-08-31T16:29:15.654Z,55.50
2017-08-31T16:31:54.826Z,55.80
2017-08-31T16:34:25.564Z,55.40
2017-08-31T16:36:55.782Z,55.50
2017-08-31T16:39:25.751Z,55.30
2017-08-31T16:41:55.489Z,55.30
2017-08-31T16:44:26.285Z,55.30
2017-08-31T16:46:55.559Z,55.20
2017-08-31T16:49:25.238Z,54.40
2017-08-31T16:51:55.167Z,55.10
2017-08-31T16:54:25.394Z,54.20
2017-08-31T16:56:57.038Z,54.10
2017-08-31T16:59:41.158Z,54.00
2017-08-31T17:02:11.512Z,54.40
2017-08-31T17:04:46.222Z,53.80
2017-08-31T17:07:16.624Z,53.40
2017-08-31T17:09:46.996Z,53.40
2017-08-31T17:12:17.473Z,53.90
2017-08-31T17:14:47.800Z,53.60
2017-08-31T17:17:20.903Z,53.90
2017-08-31T17:19:51.254Z,53.80
2017-08-31T17:22:27.674Z,54.00
2017-08-31T17:25:02.766Z,54.00
2017-08-31T17:27:53.504Z,53.90
2017-08-31T17:30:23.042Z,53.60
2017-08-31T17:32:53.577Z,54.30
2017-08-31T17:35:25.406Z,53.60
2017-08-31T17:37:57.165Z,54.40
2017-08-31T17:40:29.155Z,54.20
2017-08-31T17:43:06.114Z,54.20
2017-08-31T17:45:36.094Z,54.30
2017-08-31T17:48:06.430Z,54.20
2017-08-31T17:50:36.488Z,54.30
2017-08-31T17:53:09.529Z,54.90
2017-08-31T17:55:40.383Z,54.30
2017-08-31T17:58:12.112Z,54.50
2017-08-31T18:01:13.374Z,55.00
2017-08-31T18:03:43.210Z,54.10
2017-08-31T18:06:12.827Z,54.90
2017-08-31T18:08:43.089Z,55.40
2017-08-31T18:11:15.253Z,55.80
2017-08-31T18:13:46.508Z,55.90
2017-08-31T18:16:17.326Z,56.40
2017-08-31T18:18:48.248Z,56.00
2017-08-31T18:21:20.454Z,56.20
2017-08-31T18:23:50.527Z,56.90
2017-08-31T18:26:21.374Z,56.60
2017-08-31T18:28:54.158Z,56.60
2017-08-31T18:31:26.372Z,56.80
2017-08-31T18:33:59.408Z,57.00
2017-08-31T18:36:32.353Z,57.20
2017-08-31T18:39:03.492Z,57.20
2017-08-31T18:41:35.610Z,57.20
2017-08-31T18:44:10.819Z,57.00
2017-08-31T18:46:42.001Z,56.90
2017-08-31T18:49:16.750Z,56.90
2017-08-31T18:51:48.523Z,57.10
2017-08-31T18:54:24.913Z,57.30
2017-08-31T18:57:00.378Z,57.10
2017-08-31T18:59:33.059Z,56.60
2017-08-31T19:02:05.131Z,56.90
2017-08-31T19:04:36.591Z,56.90
2017-08-31T19:07:09.095Z,57.40
2017-08-31T19:09:39.572Z,57.80
2017-08-31T19:12:10.647Z,58.20
2017-08-31T19:14:40.819Z,57.60
2017-08-31T19:17:10.574Z,57.80
2017-08-31T19:19:40.313Z,58.00
2017-08-31T19:22:10.555Z,58.20
2017-08-31T19:24:40.235Z,58.10
2017-08-31T19:27:30.027Z,58.40
2017-08-31T19:30:01.114Z,58.10
2017-08-31T19:32:34.147Z,58.50
2017-08-31T19:35:14.668Z,58.40
2017-08-31T19:37:47.473Z,58.80
2017-08-31T19:40:41.406Z,59.40
2017-08-31T19:43:18.886Z,59.40
2017-08-31T19:45:56.161Z,59.60
2017-08-31T19:51:18.436Z,60.90
2017-08-31T19:53:55.623Z,61.30
2017-08-31T19:56:41.593Z,61.60
2017-08-31T19:59:18.357Z,61.60
2017-08-31T20:02:04.126Z,61.90
2017-08-31T20:04:35.124Z,61.90
2017-08-31T20:07:13.823Z,61.90
2017-08-31T20:09:57.893Z,62.40
2017-08-31T20:12:39.904Z,62.70
2017-08-31T20:15:43.463Z,62.70
2017-08-31T20:18:14.500Z,62.00
2017-08-31T20:20:53.607Z,62.50
2017-08-31T20:23:24.131Z,62.60
2017-08-31T20:25:54.534Z,63.00
2017-08-31T20:28:25.126Z,62.70
2017-08-31T20:30:54.910Z,62.70
2017-08-31T20:33:25.090Z,62.90
2017-08-31T20:35:54.928Z,64.10
2017-08-31T20:38:25.285Z,64.50
2017-08-31T20:40:56.469Z,65.10
2017-08-31T20:43:26.958Z,66.30
2017-08-31T20:45:56.373Z,66.30
2017-08-31T20:48:27.994Z,67.00
2017-08-31T20:50:59.585Z,67.40
2017-08-31T20:53:30.343Z,67.60
2017-08-31T20:56:01.197Z,68.20
2017-08-31T20:58:33.461Z,68.20
2017-08-31T21:01:32.664Z,68.30
2017-08-31T21:04:05.633Z,68.50
2017-08-31T21:06:45.099Z,69.10
2017-08-31T21:09:24.066Z,69.50
2017-08-31T21:11:57.537Z,69.80
2017-08-31T21:14:34.856Z,70.80
2017-08-31T21:17:53.325Z,70.80
2017-08-31T21:20:25.312Z,70.70
2017-08-31T21:22:55.050Z,70.40
2017-08-31T21:25:41.790Z,70.60
2017-08-31T21:28:13.247Z,70.00
2017-08-31T21:30:59.791Z,71.10
2017-08-31T21:33:29.660Z,70.80
2017-08-31T21:36:05.024Z,70.20
2017-08-31T21:38:34.786Z,70.80
2017-08-31T21:41:05.329Z,70.60
2017-08-31T21:46:17.076Z,69.90
2017-08-31T21:48:47.032Z,69.70
2017-08-31T21:51:16.696Z,70.20
2017-08-31T21:53:47.692Z,71.20
2017-08-31T21:56:20.219Z,71.20
2017-08-31T21:58:53.757Z,71.50
2017-08-31T22:01:27.239Z,71.50
2017-08-31T22:03:57.043Z,72.30
2017-08-31T22:06:27.165Z,72.40
2017-08-31T22:12:22.685Z,72.80
2017-08-31T22:14:58.178Z,71.30
2017-08-31T22:17:46.957Z,71.30
2017-08-31T22:20:16.437Z,71.60
2017-08-31T22:22:46.444Z,72.00
2017-08-31T22:25:15.781Z,72.70
2017-08-31T22:27:45.242Z,73.50
2017-08-31T22:30:15.498Z,74.80
2017-08-31T22:32:45.602Z,74.80
2017-08-31T22:35:15.547Z,75.40
2017-08-31T22:37:46.023Z,75.90
2017-08-31T22:40:16.198Z,76.60
2017-08-31T22:42:46.508Z,76.60
2017-08-31T22:45:37.995Z,77.30
2017-08-31T22:48:21.455Z,77.40
2017-08-31T22:50:51.272Z,77.80
2017-08-31T22:53:21.740Z,78.50
2017-08-31T22:55:59.703Z,78.40
2017-08-31T22:58:38.063Z,78.50
2017-08-31T23:01:08.931Z,78.60
2017-08-31T23:03:38.428Z,78.30
2017-08-31T23:06:08.570Z,78.30
2017-08-31T23:08:38.002Z,78.60
2017-08-31T23:11:08.563Z,79.30
2017-08-31T23:13:38.102Z,79.60
2017-08-31T23:16:07.969Z,80.30
2017-08-31T23:18:37.755Z,80.60
2017-08-31T23:21:07.332Z,81.00
2017-08-31T23:23:37.531Z,81.30
2017-08-31T23:26:07.611Z,81.70
2017-08-31T23:28:37.071Z,81.80
2017-08-31T23:31:06.510Z,82.10
2017-08-31T23:33:36.854Z,81.70
2017-08-31T23:36:06.712Z,82.20
2017-08-31T23:38:36.560Z,82.60
2017-08-31T23:41:05.809Z,82.50
2017-08-31T23:43:36.196Z,82.60
2017-08-31T23:46:07.407Z,82.40
2017-08-31T23:48:37.695Z,82.50
2017-08-31T23:51:07.450Z,82.70
2017-08-31T23:53:37.001Z,82.60
2017-08-31T23:56:34.857Z,82.70
2017-08-31T23:59:05.243Z,82.90
